createdAt,value
2023-03-05T00:01:29.528Z,23.42
2023-03-05T00:03:57.531Z,26.80
2023-03-05T00:06:29.100Z,24.92
2023-03-05T00:08:58.257Z,25.35
2023-03-05T00:11:30.182Z,29.00
2023-03-05T00:13:59.305Z,29.58
2023-03-05T00:16:27.952Z,21.88
2023-03-05T00:19:00.427Z,22.58
2023-03-05T00:21:32.090Z,22.90
2023-03-05T00:24:03.232Z,20.98
2023-03-05T00:26:31.402Z,23.35
2023-03-05T00:28:58.838Z,24.42
2023-03-05T00:31:32.287Z,28.98
2023-03-05T00:34:06.457Z,24.48
2023-03-05T00:36:34.727Z,24.63
2023-03-05T00:39:02.019Z,22.83
2023-03-05T00:41:28.876Z,24.45
2023-03-05T00:43:56.059Z,27.25
2023-03-05T00:46:23.372Z,25.02
2023-03-05T00:48:50.459Z,22.40
2023-03-05T00:51:17.375Z,25.15
2023-03-05T00:53:44.354Z,22.63
2023-03-05T00:56:11.890Z,21.77
2023-03-05T00:58:39.127Z,21.25
2023-03-05T01:01:07.195Z,23.25
2023-03-05T01:03:36.219Z,24.10
2023-03-05T01:06:10.677Z,27.80
2023-03-05T01:08:37.962Z,29.70
2023-03-05T01:11:06.745Z,26.27
2023-03-05T01:13:33.735Z,28.10
2023-03-05T01:16:01.198Z,26.17
2023-03-05T01:18:28.680Z,25.77
2023-03-05T01:20:55.604Z,26.30
2023-03-05T01:23:22.635Z,26.27
2023-03-05T01:26:00.350Z,25.77
2023-03-05T01:28:27.951Z,26.88
2023-03-05T01:30:55.160Z,25.52
2023-03-05T01:33:22.152Z,24.73
2023-03-05T01:35:49.943Z,30.27
2023-03-05T01:38:17.797Z,24.15
2023-03-05T01:40:45.234Z,26.85
2023-03-05T01:43:12.065Z,26.10
2023-03-05T01:46:18.714Z,26.90
2023-03-05T01:48:56.196Z,23.50
2023-03-05T01:51:29.142Z,24.60
2023-03-05T01:53:59.227Z,23.02
2023-03-05T01:56:29.288Z,24.92
2023-03-05T01:59:03.436Z,26.67
2023-03-05T02:01:44.487Z,24.52
2023-03-05T02:04:17.163Z,23.02
2023-03-05T02:06:45.555Z,25.60
2023-03-05T02:09:13.343Z,27.38
2023-03-05T02:11:41.122Z,27.40
2023-03-05T02:14:10.263Z,25.35
2023-03-05T02:16:38.749Z,25.17
2023-03-05T02:19:12.317Z,26.92
2023-03-05T02:21:43.897Z,26.58
2023-03-05T02:24:33.350Z,25.60
2023-03-05T02:27:02.703Z,23.65
2023-03-05T02:29:31.718Z,28.05
2023-03-05T02:31:58.988Z,32.40
2023-03-05T02:34:26.216Z,29.75
2023-03-05T02:36:55.531Z,29.67
2023-03-05T02:39:22.796Z,26.83
2023-03-05T02:41:49.681Z,25.48
2023-03-05T02:44:16.596Z,29.00
2023-03-05T02:46:43.428Z,24.73
2023-03-05T02:49:10.308Z,28.50
2023-03-05T02:51:37.171Z,27.50
2023-03-05T02:54:04.316Z,27.13
2023-03-05T02:56:31.314Z,24.58
2023-03-05T02:58:58.272Z,27.60
2023-03-05T03:01:28.121Z,25.65
2023-03-05T03:03:55.780Z,26.20
2023-03-05T03:06:22.806Z,30.17
2023-03-05T03:08:49.676Z,26.73
2023-03-05T03:11:17.637Z,28.48
2023-03-05T03:13:44.646Z,27.98
2023-03-05T03:16:15.606Z,26.27
2023-03-05T03:18:44.074Z,25.60
2023-03-05T03:21:23.536Z,26.15
2023-03-05T03:23:50.457Z,27.52
2023-03-05T03:26:17.832Z,28.25
2023-03-05T03:28:45.112Z,29.63
2023-03-05T03:31:12.469Z,28.77
2023-03-05T03:33:39.510Z,27.65
2023-03-05T03:36:07.185Z,27.95
2023-03-05T03:38:34.055Z,33.83
2023-03-05T03:41:00.989Z,28.50
2023-03-05T03:43:27.858Z,24.45
2023-03-05T03:45:54.769Z,27.35
2023-03-05T03:48:21.612Z,28.25
2023-03-05T03:50:48.505Z,30.13
2023-03-05T03:53:17.349Z,31.73
2023-03-05T03:55:46.472Z,30.00
2023-03-05T03:58:13.743Z,26.98
2023-03-05T04:00:41.649Z,29.80
2023-03-05T04:03:09.240Z,26.13
2023-03-05T04:05:36.086Z,30.35
2023-03-05T04:08:03.508Z,31.58
2023-03-05T04:10:30.498Z,31.20
2023-03-05T04:12:57.310Z,35.05
2023-03-05T04:15:25.041Z,28.08
2023-03-05T04:17:51.906Z,28.10
2023-03-05T04:20:18.944Z,29.65
2023-03-05T04:22:45.788Z,29.83
2023-03-05T04:25:12.608Z,29.48
2023-03-05T04:27:40.409Z,30.98
2023-03-05T04:30:11.562Z,26.35
2023-03-05T04:32:38.406Z,25.55
2023-03-05T04:35:05.623Z,28.33
2023-03-05T04:37:33.252Z,41.83
2023-03-05T04:40:00.177Z,28.58
2023-03-05T04:42:27.024Z,25.33
2023-03-05T04:44:53.862Z,25.73
2023-03-05T04:47:20.739Z,26.90
2023-03-05T04:49:47.550Z,25.92
2023-03-05T04:52:15.169Z,24.27
2023-03-05T04:54:44.068Z,25.52
2023-03-05T04:57:11.041Z,28.08
2023-03-05T04:59:38.684Z,24.10
2023-03-05T05:02:06.001Z,25.48
2023-03-05T05:04:33.218Z,26.92
2023-03-05T05:07:00.140Z,27.15
2023-03-05T05:09:27.197Z,23.35
2023-03-05T05:11:54.322Z,24.08
2023-03-05T05:14:21.453Z,24.25
2023-03-05T05:16:48.569Z,25.20
2023-03-05T05:19:15.459Z,34.28
2023-03-05T05:21:42.626Z,25.85
2023-03-05T05:24:09.814Z,26.45
2023-03-05T05:26:36.709Z,26.40
2023-03-05T05:29:03.683Z,23.40
2023-03-05T05:31:30.522Z,28.13
2023-03-05T05:33:59.840Z,23.13
2023-03-05T05:36:26.702Z,24.70
2023-03-05T05:38:54.068Z,20.27
2023-03-05T05:41:21.106Z,24.90
2023-03-05T05:43:48.725Z,26.00
2023-03-05T05:46:19.894Z,26.17
2023-03-05T05:48:47.616Z,25.27
2023-03-05T05:51:21.815Z,24.40
2023-03-05T05:53:49.073Z,28.05
2023-03-05T05:56:17.228Z,31.25
2023-03-05T05:58:47.788Z,27.30
2023-03-05T06:01:31.967Z,22.55
2023-03-05T06:03:59.739Z,28.73
2023-03-05T06:06:28.011Z,24.63
2023-03-05T06:08:55.881Z,25.83
2023-03-05T06:11:23.344Z,25.92
2023-03-05T06:13:50.588Z,24.27
2023-03-05T06:16:24.081Z,24.45
2023-03-05T06:18:52.780Z,26.27
2023-03-05T06:21:21.423Z,27.15
2023-03-05T06:23:49.966Z,24.60
2023-03-05T06:26:21.736Z,26.70
2023-03-05T06:28:48.766Z,22.30
2023-03-05T06:31:21.913Z,25.48
2023-03-05T06:33:50.221Z,20.70
2023-03-05T06:36:19.615Z,23.15
2023-03-05T06:38:48.394Z,23.55
2023-03-05T06:41:20.460Z,24.40
2023-03-05T06:43:49.081Z,21.92
2023-03-05T06:46:20.491Z,23.40
2023-03-05T06:48:48.815Z,26.17
2023-03-05T06:51:21.146Z,27.90
2023-03-05T06:53:49.721Z,20.00
2023-03-05T06:56:18.195Z,23.80
2023-03-05T06:58:47.932Z,23.33
2023-03-05T07:01:16.220Z,22.08
2023-03-05T07:03:44.211Z,23.33
2023-03-05T07:06:14.385Z,21.08
2023-03-05T07:08:42.580Z,26.15
2023-03-05T07:11:17.053Z,22.13
2023-03-05T07:13:47.597Z,23.30
2023-03-05T07:16:17.940Z,24.10
2023-03-05T07:18:45.803Z,21.75
2023-03-05T07:21:19.358Z,22.95
2023-03-05T07:23:46.667Z,22.00
2023-03-05T07:26:14.534Z,25.55
2023-03-05T07:28:41.575Z,24.27
2023-03-05T07:31:13.842Z,22.48
2023-03-05T07:33:40.909Z,23.20
2023-03-05T07:36:09.660Z,22.38
2023-03-05T07:38:36.886Z,27.60
2023-03-05T07:41:10.561Z,23.98
2023-03-05T07:43:37.776Z,20.60
2023-03-05T07:46:11.575Z,27.58
2023-03-05T07:48:38.681Z,27.13
2023-03-05T07:51:16.947Z,22.75
2023-03-05T07:53:46.109Z,22.98
2023-03-05T07:56:13.659Z,23.33
2023-03-05T07:58:40.517Z,25.33
2023-03-05T08:01:16.653Z,23.77
2023-03-05T08:03:44.203Z,20.05
2023-03-05T08:06:12.844Z,21.02
2023-03-05T08:08:39.806Z,22.23
2023-03-05T08:11:11.479Z,22.50
2023-03-05T08:13:38.933Z,19.50
2023-03-05T08:16:08.926Z,20.00
2023-03-05T08:18:36.282Z,22.42
2023-03-05T08:21:03.513Z,20.00
2023-03-05T08:23:31.075Z,20.15
2023-03-05T08:25:57.917Z,19.88
2023-03-05T08:28:24.787Z,22.05
2023-03-05T08:30:51.879Z,21.40
2023-03-05T08:33:18.941Z,21.27
2023-03-05T08:35:46.356Z,22.95
2023-03-05T08:38:13.580Z,22.45
2023-03-05T08:40:40.446Z,21.25
2023-03-05T08:43:07.264Z,22.75
2023-03-05T08:45:34.195Z,20.85
2023-03-05T08:48:01.018Z,22.05
2023-03-05T08:50:27.978Z,21.25
2023-03-05T08:52:56.920Z,21.85
2023-03-05T08:55:23.945Z,24.33
2023-03-05T08:57:50.972Z,25.63
2023-03-05T09:00:18.421Z,20.45
2023-03-05T09:02:45.422Z,22.90
2023-03-05T09:05:12.694Z,23.85
2023-03-05T09:07:39.742Z,24.58
2023-03-05T09:10:10.264Z,19.77
2023-03-05T09:12:37.836Z,24.60
2023-03-05T09:15:08.405Z,25.67
2023-03-05T09:17:36.849Z,28.52
2023-03-05T09:20:06.401Z,23.77
2023-03-05T09:22:33.366Z,24.58
2023-03-05T09:25:00.268Z,25.55
2023-03-05T09:27:27.059Z,20.50
2023-03-05T09:29:53.874Z,22.95
2023-03-05T09:32:20.752Z,23.02
2023-03-05T09:34:47.583Z,22.50
2023-03-05T09:37:14.496Z,24.70
2023-03-05T09:39:41.421Z,21.58
2023-03-05T09:42:27.816Z,21.15
2023-03-05T09:45:17.559Z,21.15
2023-03-05T09:47:57.004Z,22.48
2023-03-05T09:50:46.749Z,23.02
2023-03-05T09:53:28.680Z,19.63
2023-03-05T09:56:04.346Z,20.60
2023-03-05T09:58:51.483Z,24.58
2023-03-05T10:01:27.044Z,19.73
2023-03-05T10:04:09.525Z,25.50
2023-03-05T10:07:04.054Z,24.15
2023-03-05T10:09:56.041Z,19.77
2023-03-05T10:12:42.985Z,22.23
2023-03-05T10:15:35.710Z,19.92
2023-03-05T10:18:20.445Z,24.30
2023-03-05T10:21:11.333Z,25.58
2023-03-05T10:27:08.008Z,16.90
2023-03-05T10:30:04.988Z,18.80
2023-03-05T10:32:53.015Z,23.00
2023-03-05T10:35:42.801Z,20.13
2023-03-05T10:38:32.312Z,20.58
2023-03-05T10:41:27.708Z,18.50
2023-03-05T10:43:57.344Z,20.45
2023-03-05T10:46:34.004Z,23.30
2023-03-05T10:49:32.226Z,20.58
2023-03-05T10:52:36.228Z,21.85
2023-03-05T10:55:19.307Z,18.63
2023-03-05T10:57:46.192Z,20.50
2023-03-05T11:00:26.295Z,24.23
2023-03-05T11:02:59.552Z,25.25
2023-03-05T11:05:38.361Z,24.08
2023-03-05T11:08:28.338Z,24.17
2023-03-05T11:11:17.802Z,21.97
2023-03-05T11:14:01.116Z,19.33
2023-03-05T11:16:32.918Z,20.05
2023-03-05T11:19:22.773Z,17.90
2023-03-05T11:22:21.079Z,18.40
2023-03-05T11:25:11.156Z,18.98
2023-03-05T11:27:52.455Z,17.53
2023-03-05T11:30:26.616Z,17.92
2023-03-05T11:33:10.822Z,15.40
2023-03-05T11:35:42.137Z,22.88
2023-03-05T11:38:24.446Z,20.23
2023-03-05T11:40:54.977Z,16.75
2023-03-05T11:43:25.338Z,17.10
2023-03-05T11:46:02.643Z,18.77
2023-03-05T11:48:37.021Z,17.70
2023-03-05T11:51:20.935Z,20.27
2023-03-05T11:53:56.112Z,23.30
2023-03-05T11:56:31.658Z,24.42
2023-03-05T11:59:18.451Z,21.13
2023-03-05T12:01:55.343Z,19.63
2023-03-05T12:04:24.390Z,18.73
2023-03-05T12:07:02.576Z,21.55
2023-03-05T12:09:51.831Z,18.13
2023-03-05T12:12:55.634Z,22.20
2023-03-05T12:16:01.133Z,19.60
2023-03-05T12:19:10.468Z,18.08
2023-03-05T12:21:41.732Z,17.98
2023-03-05T12:24:25.422Z,20.10
2023-03-05T12:26:53.569Z,19.20
2023-03-05T12:29:51.272Z,16.77
2023-03-05T12:32:31.412Z,12.95
2023-03-05T12:35:00.205Z,13.68
2023-03-05T12:37:27.271Z,15.38
2023-03-05T12:40:20.598Z,11.75
2023-03-05T12:43:06.066Z,13.25
2023-03-05T12:45:40.073Z,12.18
2023-03-05T12:48:11.910Z,13.73
2023-03-05T12:50:38.815Z,12.18
2023-03-05T12:53:20.832Z,10.75
2023-03-05T12:55:59.192Z,9.90
2023-03-05T12:58:42.473Z,12.88
2023-03-05T13:01:12.484Z,11.90
2023-03-05T13:03:53.342Z,11.02
2023-03-05T13:09:03.472Z,10.82
2023-03-05T13:11:34.469Z,11.18
2023-03-05T13:14:02.854Z,10.13
2023-03-05T13:16:38.789Z,12.32
2023-03-05T13:19:17.638Z,11.65
2023-03-05T13:21:44.725Z,11.30
2023-03-05T13:24:19.733Z,15.23
2023-03-05T13:26:46.650Z,13.20
2023-03-05T13:29:16.210Z,8.98
2023-03-05T13:31:56.090Z,8.60
2023-03-05T13:34:46.641Z,11.10
2023-03-05T13:37:22.303Z,10.45
2023-03-05T13:39:58.880Z,11.52
2023-03-05T13:42:32.387Z,11.10
2023-03-05T13:45:06.625Z,9.65
2023-03-05T13:47:36.183Z,10.05
2023-03-05T13:50:22.065Z,11.65
2023-03-05T13:52:48.917Z,8.70
2023-03-05T13:55:17.989Z,8.35
2023-03-05T13:57:52.998Z,10.45
2023-03-05T14:00:38.920Z,9.98
2023-03-05T14:03:27.924Z,9.23
2023-03-05T14:05:55.080Z,9.10
2023-03-05T14:08:25.718Z,8.95
2023-03-05T14:10:59.278Z,14.45
2023-03-05T14:13:31.987Z,14.68
2023-03-05T14:16:25.012Z,11.70
2023-03-05T14:18:59.255Z,10.43
2023-03-05T14:21:48.651Z,12.63
2023-03-05T14:24:25.471Z,11.35
2023-03-05T14:26:57.770Z,11.18
2023-03-05T14:29:28.744Z,12.95
2023-03-05T14:32:06.782Z,15.13
2023-03-05T14:34:36.999Z,10.30
2023-03-05T14:37:17.020Z,12.80
2023-03-05T14:39:56.466Z,12.53
2023-03-05T14:42:38.770Z,13.45
2023-03-05T14:45:20.703Z,15.25
2023-03-05T14:47:47.752Z,15.98
2023-03-05T14:50:29.300Z,17.83
2023-03-05T14:53:03.628Z,13.95
2023-03-05T14:55:32.388Z,12.80
2023-03-05T14:58:14.571Z,14.25
2023-03-05T15:00:42.903Z,14.50
2023-03-05T15:03:14.893Z,13.35
2023-03-05T15:05:44.362Z,14.18
2023-03-05T15:08:17.097Z,14.48
2023-03-05T15:10:44.161Z,13.48
2023-03-05T15:13:14.228Z,12.65
2023-03-05T15:15:43.149Z,14.93
2023-03-05T15:18:16.467Z,15.93
2023-03-05T15:20:45.071Z,12.27
2023-03-05T15:23:12.997Z,13.65
2023-03-05T15:25:40.861Z,16.27
2023-03-05T15:28:08.192Z,15.18
2023-03-05T15:30:42.281Z,15.60
2023-03-05T15:33:17.746Z,14.48
2023-03-05T15:35:45.193Z,18.80
2023-03-05T15:38:12.136Z,14.77
2023-03-05T15:40:39.165Z,14.65
2023-03-05T15:43:05.998Z,12.57
2023-03-05T15:45:32.893Z,19.42
2023-03-05T15:47:59.823Z,14.40
2023-03-05T15:50:26.963Z,17.27
2023-03-05T15:52:53.891Z,18.35
2023-03-05T15:55:24.616Z,17.80
2023-03-05T15:57:53.522Z,12.73
2023-03-05T16:00:28.547Z,15.15
2023-03-05T16:02:55.583Z,14.65
2023-03-05T16:05:23.125Z,15.38
2023-03-05T16:07:53.285Z,15.30
2023-03-05T16:10:25.570Z,14.02
2023-03-05T16:13:08.639Z,15.25
2023-03-05T16:15:37.398Z,11.30
2023-03-05T16:18:10.115Z,13.85
2023-03-05T16:20:37.724Z,14.23
2023-03-05T16:23:05.833Z,12.50
2023-03-05T16:25:33.096Z,12.43
2023-03-05T16:27:59.971Z,9.93
2023-03-05T16:30:26.789Z,11.88
2023-03-05T16:32:53.928Z,10.88
2023-03-05T16:35:21.172Z,11.23
2023-03-05T16:37:48.109Z,7.78
2023-03-05T16:40:15.572Z,9.48
2023-03-05T16:42:43.060Z,10.73
2023-03-05T16:45:12.442Z,12.07
2023-03-05T16:47:40.076Z,9.02
2023-03-05T16:50:09.592Z,8.23
2023-03-05T16:52:37.110Z,7.63
2023-03-05T16:55:06.141Z,8.43
2023-03-05T16:57:33.022Z,7.28
2023-03-05T17:00:02.493Z,8.60
2023-03-05T17:02:29.554Z,7.10
2023-03-05T17:04:57.779Z,9.15
2023-03-05T17:07:26.455Z,8.30
2023-03-05T17:09:54.414Z,8.75
2023-03-05T17:12:22.507Z,9.00
2023-03-05T17:14:49.526Z,10.13
2023-03-05T17:17:16.665Z,8.57
2023-03-05T17:19:43.772Z,9.38
2023-03-05T17:22:12.678Z,7.55
2023-03-05T17:24:42.941Z,10.80
2023-03-05T17:27:11.026Z,8.75
2023-03-05T17:29:38.041Z,8.32
2023-03-05T17:32:06.107Z,9.65
2023-03-05T17:34:36.676Z,11.20
2023-03-05T17:39:32.776Z,6.50
2023-03-05T17:42:00.816Z,7.72
2023-03-05T17:44:27.652Z,8.45
2023-03-05T17:46:54.629Z,7.90
2023-03-05T17:49:21.652Z,11.85
2023-03-05T17:51:48.539Z,7.80
2023-03-05T17:54:15.605Z,10.32
2023-03-05T17:56:42.602Z,8.98
2023-03-05T17:59:09.689Z,9.65
2023-03-05T18:01:36.655Z,9.68
2023-03-05T18:04:03.905Z,8.40
2023-03-05T18:06:31.951Z,11.70
2023-03-05T18:08:59.312Z,8.27
2023-03-05T18:11:27.504Z,10.68
2023-03-05T18:13:54.427Z,8.93
2023-03-05T18:16:23.379Z,9.50
2023-03-05T18:18:50.470Z,9.30
2023-03-05T18:21:25.308Z,9.38
2023-03-05T18:23:52.480Z,8.55
2023-03-05T18:26:19.356Z,9.98
2023-03-05T18:28:46.258Z,8.95
2023-03-05T18:31:13.310Z,7.53
2023-03-05T18:33:40.718Z,10.23
2023-03-05T18:36:10.741Z,9.93
2023-03-05T18:38:38.577Z,12.10
2023-03-05T18:41:06.446Z,14.55
2023-03-05T18:43:33.743Z,9.85
2023-03-05T18:46:04.843Z,9.93
2023-03-05T18:48:31.838Z,10.63
2023-03-05T18:50:59.235Z,8.85
2023-03-05T18:53:26.567Z,9.27
2023-03-05T18:55:53.774Z,10.25
2023-03-05T18:58:20.923Z,11.32
2023-03-05T19:00:49.067Z,9.93
2023-03-05T19:03:18.999Z,14.25
2023-03-05T19:05:47.010Z,16.38
2023-03-05T19:08:13.939Z,10.60
2023-03-05T19:10:40.851Z,9.93
2023-03-05T19:13:39.793Z,15.23
2023-03-05T19:16:17.901Z,9.55
2023-03-05T19:19:11.274Z,8.88
2023-03-05T19:21:39.121Z,8.02
2023-03-05T19:24:07.466Z,8.35
2023-03-05T19:26:35.102Z,7.18
2023-03-05T19:29:02.556Z,9.95
2023-03-05T19:31:29.797Z,9.55
2023-03-05T19:33:56.696Z,10.05
2023-03-05T19:36:23.743Z,10.80
2023-03-05T19:38:50.639Z,13.55
2023-03-05T19:41:19.430Z,10.23
2023-03-05T19:43:47.306Z,10.13
2023-03-05T19:46:14.363Z,11.52
2023-03-05T19:48:42.476Z,13.75
2023-03-05T19:51:12.872Z,14.05
2023-03-05T19:53:41.603Z,8.85
2023-03-05T19:56:09.963Z,9.18
2023-03-05T19:58:38.395Z,9.65
2023-03-05T20:01:14.279Z,8.75
2023-03-05T20:03:44.291Z,10.32
2023-03-05T20:06:11.321Z,11.37
2023-03-05T20:08:38.520Z,9.90
2023-03-05T20:11:06.989Z,12.50
2023-03-05T20:13:34.067Z,10.68
2023-03-05T20:16:01.049Z,12.60
2023-03-05T20:18:28.015Z,14.93
2023-03-05T20:20:58.844Z,15.63
2023-03-05T20:25:52.784Z,10.07
2023-03-05T20:28:26.230Z,15.90
2023-03-05T20:30:59.437Z,10.38
2023-03-05T20:33:28.497Z,15.32
2023-03-05T20:35:56.911Z,11.68
2023-03-05T20:38:31.764Z,12.75
2023-03-05T20:41:05.420Z,16.02
2023-03-05T20:43:36.510Z,19.63
2023-03-05T20:46:05.430Z,13.82
2023-03-05T20:48:34.243Z,14.88
2023-03-05T20:51:19.129Z,16.17
2023-03-05T20:53:46.349Z,16.30
2023-03-05T20:56:13.245Z,15.15
2023-03-05T20:58:40.147Z,15.65
2023-03-05T21:01:07.462Z,18.88
2023-03-05T21:03:34.455Z,13.05
2023-03-05T21:06:04.149Z,14.10
2023-03-05T21:08:31.685Z,13.63
2023-03-05T21:11:00.145Z,13.32
2023-03-05T21:13:27.255Z,13.93
2023-03-05T21:15:54.194Z,15.35
2023-03-05T21:18:21.199Z,14.35
2023-03-05T21:20:48.082Z,15.32
2023-03-05T21:23:15.032Z,13.82
2023-03-05T21:25:42.004Z,14.18
2023-03-05T21:28:17.844Z,18.20
2023-03-05T21:30:49.015Z,13.63
2023-03-05T21:33:23.752Z,15.60
2023-03-05T21:35:52.782Z,14.90
2023-03-05T21:38:23.052Z,17.33
2023-03-05T21:40:52.578Z,19.27
2023-03-05T21:43:23.158Z,19.92
2023-03-05T21:45:53.585Z,18.00
2023-03-05T21:48:22.082Z,15.02
2023-03-05T21:50:50.181Z,13.23
2023-03-05T21:53:19.306Z,14.57
2023-03-05T21:56:03.061Z,14.38
2023-03-05T21:58:34.359Z,15.63
2023-03-05T22:01:02.167Z,16.00
2023-03-05T22:03:29.994Z,17.83
2023-03-05T22:05:57.712Z,18.38
2023-03-05T22:08:25.232Z,17.00
2023-03-05T22:10:52.329Z,17.40
2023-03-05T22:13:20.140Z,12.52
2023-03-05T22:15:53.942Z,20.75
2023-03-05T22:18:28.207Z,16.92
2023-03-05T22:20:56.652Z,17.08
2023-03-05T22:23:28.171Z,15.27
2023-03-05T22:26:07.353Z,17.25
2023-03-05T22:28:36.229Z,16.58
2023-03-05T22:31:03.460Z,16.20
2023-03-05T22:33:31.517Z,14.48
2023-03-05T22:35:58.974Z,19.63
2023-03-05T22:38:26.374Z,15.70
2023-03-05T22:40:53.390Z,17.38
2023-03-05T22:43:20.804Z,15.75
2023-03-05T22:45:48.021Z,17.10
2023-03-05T22:48:15.127Z,19.77
2023-03-05T22:50:46.428Z,18.48
2023-03-05T22:53:13.403Z,21.30
2023-03-05T22:55:42.185Z,20.40
2023-03-05T22:58:09.316Z,22.75
2023-03-05T23:00:36.297Z,24.45
2023-03-05T23:03:03.454Z,19.48
2023-03-05T23:05:30.410Z,24.95
2023-03-05T23:07:57.286Z,20.27
2023-03-05T23:10:28.576Z,18.50
2023-03-05T23:12:58.597Z,18.50
2023-03-05T23:15:35.932Z,16.95
2023-03-05T23:18:06.280Z,15.50
2023-03-05T23:20:36.624Z,16.42
2023-03-05T23:23:04.729Z,16.17
2023-03-05T23:25:35.071Z,20.48
2023-03-05T23:28:03.098Z,16.55
2023-03-05T23:30:37.288Z,20.63
2023-03-05T23:33:17.485Z,17.65
2023-03-05T23:35:58.848Z,18.17
2023-03-05T23:38:29.803Z,16.55
2023-03-05T23:41:01.339Z,16.42
2023-03-05T23:43:28.923Z,16.65
2023-03-05T23:45:56.799Z,13.05
2023-03-05T23:48:26.419Z,17.17
2023-03-05T23:50:53.993Z,15.32
2023-03-05T23:53:28.805Z,19.00
2023-03-05T23:55:56.133Z,17.02
2023-03-05T23:58:23.982Z,17.30
